N468JL KOEB-KRAC
Flight info
| Callsign | N468JL |
|---|---|
| Flight time | N/A |
| Altitude | 3500 |
| Route | DCT |
| Aircraft | C182/L-DOV/C |
Departure
| Time | N/A |
|---|---|
| Airport | Branch County Memorial Airport (KOEB) |
Arrival
| Time | 2026-05-04 01:02 |
|---|---|
| Airport | John H Batten Airport (KRAC) |
| Time | Latitude | Longitude | Altitude | Speed | Heading |
|---|---|---|---|---|---|
| 2026-05-04 01:01 | 42.75941 | -87.81971 | 678 ft | 0 kts | 353° |
| 2026-05-04 01:02 | 42.75956 | -87.81968 | 678 ft | 6 kts | 15° |
| 2026-05-04 01:02 | 42.75999 | -87.81952 | 678 ft | 8 kts | 5° |
| 2026-05-04 01:02 | 42.76065 | -87.81923 | 678 ft | 10 kts | 35° |
| 2026-05-04 01:02 | 42.76118 | -87.81863 | 678 ft | 10 kts | 40° |
| 2026-05-04 01:03 | 42.76136 | -87.81794 | 678 ft | 11 kts | 114° |
| 2026-05-04 01:03 | 42.76084 | -87.81707 | 678 ft | 15 kts | 132° |
| 2026-05-04 01:03 | 42.76005 | -87.81593 | 678 ft | 15 kts | 134° |
| 2026-05-04 01:03 | 42.75943 | -87.81508 | 678 ft | 13 kts | 134° |
| 2026-05-04 01:04 | 42.75890 | -87.81423 | 678 ft | 10 kts | 101° |
| 2026-05-04 01:04 | 42.75938 | -87.81347 | 678 ft | 14 kts | 40° |
| 2026-05-04 01:04 | 42.76031 | -87.81238 | 678 ft | 21 kts | 39° |
| 2026-05-04 01:04 | 42.76160 | -87.81101 | 678 ft | 26 kts | 38° |
| 2026-05-04 01:05 | 42.76291 | -87.80957 | 678 ft | 20 kts | 39° |
| 2026-05-04 01:05 | 42.76375 | -87.80865 | 678 ft | 12 kts | 39° |
| 2026-05-04 01:05 | 42.76466 | -87.80765 | 678 ft | 19 kts | 37° |
| 2026-05-04 01:05 | 42.76588 | -87.80665 | 678 ft | 23 kts | 28° |
| 2026-05-04 01:06 | 42.76727 | -87.80559 | 678 ft | 13 kts | 13° |
| 2026-05-04 01:06 | 42.76741 | -87.80558 | 678 ft | 0 kts | 352° |
| 2026-05-04 01:06 | 42.76742 | -87.80558 | 678 ft | 0 kts | 352° |